Аэропорт: Уйташ. Махачкала

ICAO: URML

METAR:
2018/05/20 19:30
URML 201930Z 28002MPS 9999 NSC 18/17 Q1011 R14/190065 NOSIG RMK QFE758/1011
METAR:
2014/03/18 00:00
TAF URML 182241Z 1900/1909 32015G20MPS 5000 BR SCT030CB BKN100 530005 
      TEMPO 1900/1906 32023G28MPS 2000 SHRA SQ SCT007 SCT030CB BKN100